RCH851 EPRZ-EDDS
Flight info
| Callsign | RCH851 |
|---|---|
| Flight time | N/A |
| Altitude | 32000 |
| Route | GOVRI T738 LUVOD Q10 PADKA DCT OKG DCT AMOSA N869 DKB Z818 GEBNO LBU07/07 |
| Aircraft | C17/H-SDE1E2FGHIJ5RTUWXY/LB1D1 |
Departure
| Time | N/A |
|---|---|
| Airport | Rzeszów-Jasionka Airport (EPRZ) |
Arrival
| Time | 2026-05-04 15:08 |
|---|---|
| Airport | Stuttgart Airport (EDDS) |
| Time | Latitude | Longitude | Altitude | Speed | Heading |
|---|---|---|---|---|---|
| 2026-05-04 15:05 | 48.66283 | 9.08149 | 3644 ft | 161 kts | 73° |
| 2026-05-04 15:05 | 48.66579 | 9.09707 | 3747 ft | 155 kts | 73° |
| 2026-05-04 15:05 | 48.66878 | 9.11283 | 3436 ft | 154 kts | 73° |
| 2026-05-04 15:06 | 48.67152 | 9.12812 | 3249 ft | 146 kts | 79° |
| 2026-05-04 15:06 | 48.67380 | 9.14271 | 2931 ft | 141 kts | 70° |
| 2026-05-04 15:06 | 48.67710 | 9.15698 | 2620 ft | 142 kts | 70° |
| 2026-05-04 15:07 | 48.68253 | 9.18492 | 1790 ft | 134 kts | 70° |
| 2026-05-04 15:07 | 48.68529 | 9.19824 | 1455 ft | 131 kts | 69° |
| 2026-05-04 15:07 | 48.68773 | 9.21067 | 1269 ft | 117 kts | 71° |
| 2026-05-04 15:07 | 48.68929 | 9.21878 | 1251 ft | 56 kts | 76° |
| 2026-05-04 15:08 | 48.69029 | 9.22414 | 1226 ft | 37 kts | 75° |
| 2026-05-04 15:08 | 48.69128 | 9.22533 | 1222 ft | 12 kts | 337° |
| 2026-05-04 15:08 | 48.69165 | 9.22517 | 1225 ft | 0 kts | 344° |
| 2026-05-04 15:08 | 48.69170 | 9.22514 | 1226 ft | 3 kts | 345° |
| 2026-05-04 15:09 | 48.69192 | 9.22505 | 1228 ft | 10 kts | 345° |
| 2026-05-04 15:09 | 48.69259 | 9.22467 | 1232 ft | 12 kts | 317° |
| 2026-05-04 15:09 | 48.69273 | 9.22323 | 1246 ft | 17 kts | 256° |
| 2026-05-04 15:10 | 48.69218 | 9.22027 | 1258 ft | 11 kts | 254° |
| 2026-05-04 15:10 | 48.69197 | 9.21917 | 1258 ft | 11 kts | 254° |
| 2026-05-04 15:10 | 48.69143 | 9.21635 | 1263 ft | 17 kts | 254° |
| 2026-05-04 15:11 | 48.69109 | 9.21452 | 1267 ft | 19 kts | 253° |
| 2026-05-04 15:11 | 48.69070 | 9.21247 | 1270 ft | 21 kts | 253° |
| 2026-05-04 15:11 | 48.69028 | 9.21028 | 1270 ft | 21 kts | 254° |
| 2026-05-04 15:11 | 48.68988 | 9.20817 | 1273 ft | 20 kts | 254° |
| 2026-05-04 15:12 | 48.68951 | 9.20622 | 1276 ft | 18 kts | 253° |
| 2026-05-04 15:12 | 48.68916 | 9.20438 | 1286 ft | 18 kts | 254° |
| 2026-05-04 15:12 | 48.68884 | 9.20267 | 1290 ft | 15 kts | 254° |
| 2026-05-04 15:12 | 48.68862 | 9.20151 | 1289 ft | 11 kts | 254° |
| 2026-05-04 15:13 | 48.68834 | 9.20024 | 1291 ft | 16 kts | 238° |
| 2026-05-04 15:13 | 48.68742 | 9.19967 | 1289 ft | 15 kts | 175° |
| 2026-05-04 15:13 | 48.68619 | 9.20012 | 1283 ft | 24 kts | 166° |
| 2026-05-04 15:13 | 48.68462 | 9.20077 | 1285 ft | 20 kts | 164° |
| 2026-05-04 15:14 | 48.68347 | 9.20099 | 1290 ft | 13 kts | 221° |
| 2026-05-04 15:14 | 48.68322 | 9.20022 | 1286 ft | 6 kts | 256° |
| 2026-05-04 15:14 | 48.68309 | 9.19953 | 1287 ft | 5 kts | 253° |
| 2026-05-04 15:14 | 48.68291 | 9.19856 | 1289 ft | 14 kts | 254° |
| 2026-05-04 15:15 | 48.68267 | 9.19726 | 1290 ft | 12 kts | 254° |
| 2026-05-04 15:15 | 48.68245 | 9.19618 | 1292 ft | 7 kts | 238° |
| 2026-05-04 15:15 | 48.68198 | 9.19638 | 1290 ft | 14 kts | 114° |
| 2026-05-04 15:16 | 48.68220 | 9.19765 | 1288 ft | 0 kts | 16° |